Time;durP1;ratioP1;P1;durP2;ratioP2;P2;SDS_P1;SDS_P2;PMS_P1;PMS_P2;Temp;Humidity;BMP_temperature;BMP_pressure;BME280_temperature;BME280_humidity;BME280_pressure;Samples;Min_cycle;Max_cycle;Signal;HPM_P1;HPM_P2
2022/08/28 00:01:11;;;;;;;12.27;3.50;;;13.70;1.00;;;;;;5065187;28;20062;-52
2022/08/28 00:03:37;;;;;;;9.60;2.70;;;14.40;1.00;;;;;;5059207;28;20036;-54
2022/08/28 00:06:03;;;;;;;10.25;3.38;;;14.40;1.00;;;;;;5067321;28;20056;-54
2022/08/28 00:08:30;;;;;;;12.77;3.65;;;;;;;;;;5054991;28;20637;-55
2022/08/28 00:10:56;;;;;;;7.80;3.08;;;14.70;1.00;;;;;;5057692;28;20036;-55
2022/08/28 00:13:24;;;;;;;6.75;2.70;;;14.40;1.00;;;;;;5055181;28;20049;-55
2022/08/28 00:15:52;;;;;;;10.07;2.90;;;;;;;;;;5069882;28;20032;-54
2022/08/28 00:18:17;;;;;;;10.02;2.65;;;14.70;1.00;;;;;;5050004;28;20506;-52
2022/08/28 00:20:45;;;;;;;11.35;3.22;;;14.70;1.00;;;;;;5059942;28;20036;-53
2022/08/28 00:23:12;;;;;;;12.13;2.60;;;;;;;;;;5053110;28;20039;-54
2022/08/28 00:25:38;;;;;;;9.07;2.83;;;14.50;1.00;;;;;;5057222;28;20410;-53
2022/08/28 00:28:06;;;;;;;8.88;2.70;;;13.80;1.00;;;;;;5059929;28;20036;-53
2022/08/28 00:30:40;;;;;;;11.75;2.80;;;;;;;;;;5055739;28;20039;-52
2022/08/28 00:33:12;;;;;;;10.27;3.13;;;14.40;1.00;;;;;;5059812;28;20090;-53
2022/08/28 00:35:39;;;;;;;11.00;3.13;;;14.80;1.00;;;;;;5064541;28;20033;-52
2022/08/28 00:38:06;;;;;;;8.55;2.60;;;14.70;1.00;;;;;;5057303;28;20036;-53
2022/08/28 00:40:31;;;;;;;8.95;2.80;;;14.30;1.00;;;;;;5054618;28;20415;-51
2022/08/28 00:42:59;;;;;;;12.20;2.92;;;;;;;;;;5062234;28;20032;-53
2022/08/28 00:45:25;;;;;;;8.32;2.40;;;14.70;1.00;;;;;;5057062;28;20037;-57
2022/08/28 00:47:51;;;;;;;8.77;2.85;;;14.70;1.00;;;;;;5055955;28;20039;-53
2022/08/28 00:50:20;;;;;;;9.05;3.28;;;14.20;1.00;;;;;;5057151;28;20033;-52
2022/08/28 00:52:49;;;;;;;9.60;2.35;;;14.20;1.00;;;;;;5064766;28;20029;-53
2022/08/28 00:55:17;;;;;;;8.15;2.85;;;;;;;;;;5056332;28;20178;-53
2022/08/28 00:57:57;;;;;;;11.88;2.90;;;14.60;1.00;;;;;;5050668;28;20040;-49
2022/08/28 01:00:38;;;;;;;8.70;2.55;;;14.00;1.00;;;;;;5057823;28;20505;-53
2022/08/28 01:03:05;;;;;;;6.93;2.65;;;14.60;1.00;;;;;;5053060;28;20036;-52
2022/08/28 01:05:33;;;;;;;8.85;3.60;;;13.60;1.00;;;;;;5052616;28;20548;-53
2022/08/28 01:07:58;;;;;;;9.57;2.70;;;14.00;1.00;;;;;;5049224;28;20058;-54
2022/08/28 01:10:26;;;;;;;9.23;2.75;;;;;;;;;;5036405;28;20032;-54
2022/08/28 01:12:55;;;;;;;12.00;2.90;;;14.50;1.00;;;;;;5049714;28;20033;-53
2022/08/28 01:15:23;;;;;;;11.48;2.78;;;;;;;;;;5064628;28;20072;-53
2022/08/28 01:17:54;;;;;;;11.38;2.88;;;14.00;1.00;;;;;;5053175;28;20040;-54
2022/08/28 01:20:24;;;;;;;9.10;2.50;;;14.20;1.00;;;;;;5056597;28;20037;-54
2022/08/28 01:23:09;;;;;;;10.35;2.40;;;;;;;;;;5053126;28;20037;-53
2022/08/28 01:25:36;;;;;;;9.80;2.75;;;13.30;1.00;;;;;;5049440;28;20079;-50
2022/08/28 01:28:06;;;;;;;6.97;2.70;;;13.70;1.00;;;;;;5065159;28;20032;-53
2022/08/28 01:30:32;;;;;;;7.78;2.67;;;13.30;1.00;;;;;;5054771;28;20044;-53
2022/08/28 01:32:57;;;;;;;10.02;2.88;;;13.60;1.00;;;;;;5057611;28;20176;-50
2022/08/28 01:35:27;;;;;;;8.88;2.78;;;14.60;1.00;;;;;;5053620;28;20064;-51
2022/08/28 01:37:54;;;;;;;9.50;2.45;;;;;;;;;;5055721;28;20079;-54
2022/08/28 01:40:25;;;;;;;16.00;3.10;;;14.40;1.00;;;;;;5052862;28;20487;-52
2022/08/28 01:42:51;;;;;;;9.82;2.90;;;13.60;1.00;;;;;;5057281;28;20037;-52
2022/08/28 01:45:18;;;;;;;10.20;2.65;;;;;;;;;;5063362;28;20098;-50
2022/08/28 01:47:44;;;;;;;9.75;2.55;;;13.70;1.00;;;;;;5048875;28;20052;-50
2022/08/28 01:50:12;;;;;;;8.13;2.63;;;;;;;;;;5057158;28;20044;-53
2022/08/28 01:52:38;;;;;;;8.38;3.28;;;14.50;1.00;;;;;;5053038;28;20045;-53
2022/08/28 01:55:05;;;;;;;11.55;2.60;;;13.80;1.00;;;;;;5051993;28;20075;-54
2022/08/28 01:57:31;;;;;;;9.32;3.13;;;13.80;1.00;;;;;;5047616;28;20104;-52
2022/08/28 01:59:57;;;;;;;9.82;2.58;;;14.40;1.00;;;;;;5059193;28;20452;-54
2022/08/28 02:02:23;;;;;;;8.52;2.33;;;14.40;1.00;;;;;;5055128;28;20029;-53
2022/08/28 02:04:49;;;;;;;10.05;2.55;;;13.70;1.00;;;;;;5049422;28;20095;-53
2022/08/28 02:07:15;;;;;;;10.18;2.80;;;;;;;;;;5055404;28;20037;-54
2022/08/28 02:09:41;;;;;;;8.05;2.42;;;13.80;1.00;;;;;;5053133;28;20048;-54
2022/08/28 02:12:07;;;;;;;9.35;2.33;;;13.70;1.00;;;;;;5057017;28;20037;-55
2022/08/28 02:14:33;;;;;;;20.40;3.55;;;13.60;1.00;;;;;;5050982;28;20119;-53
2022/08/28 02:16:58;;;;;;;8.82;2.10;;;13.30;1.00;;;;;;5049910;28;20474;-55
2022/08/28 02:19:24;;;;;;;7.72;2.42;;;13.40;1.00;;;;;;5069496;28;20037;-52
2022/08/28 02:21:50;;;;;;;8.68;2.25;;;13.20;1.00;;;;;;5049490;28;20037;-55
2022/08/28 02:24:16;;;;;;;7.07;2.13;;;13.30;1.00;;;;;;5055645;28;20048;-53
2022/08/28 02:26:43;;;;;;;11.30;3.17;;;;;;;;;;5058214;28;20185;-54
2022/08/28 02:29:10;;;;;;;7.65;2.08;;;13.30;1.00;;;;;;5057068;28;20076;-55
2022/08/28 02:31:36;;;;;;;10.25;2.25;;;13.10;1.00;;;;;;5050708;28;20048;-55
2022/08/28 02:34:03;;;;;;;7.82;2.42;;;13.50;1.00;;;;;;5050592;28;20041;-55
2022/08/28 02:36:29;;;;;;;9.10;2.33;;;;;;;;;;5055503;28;20044;-54
2022/08/28 02:38:54;;;;;;;8.10;2.15;;;14.10;1.00;;;;;;5049307;28;20037;-54
2022/08/28 02:41:20;;;;;;;6.47;1.95;;;14.30;1.00;;;;;;5055641;28;20525;-55
2022/08/28 02:43:46;;;;;;;7.80;2.35;;;13.50;1.00;;;;;;5060701;28;20398;-55
2022/08/28 02:46:12;;;;;;;7.45;2.20;;;14.30;1.00;;;;;;5058621;28;20041;-55
2022/08/28 02:48:39;;;;;;;8.10;2.13;;;13.20;1.00;;;;;;5061394;28;20042;-55
2022/08/28 02:51:12;;;;;;;11.30;3.50;;;13.40;1.00;;;;;;5054499;28;20120;-55
2022/08/28 02:53:38;;;;;;;9.25;2.33;;;;;;;;;;5060966;28;20040;-55
2022/08/28 02:56:05;;;;;;;8.05;2.45;;;13.70;1.00;;;;;;5053976;28;20619;-51
2022/08/28 02:58:31;;;;;;;8.50;2.53;;;13.50;1.00;;;;;;5063009;28;20119;-53
2022/08/28 03:01:02;;;;;;;9.63;2.88;;;13.70;1.00;;;;;;5052340;28;20036;-54
2022/08/28 03:03:30;;;;;;;8.73;2.70;;;;;;;;;;5057741;28;20047;-50
2022/08/28 03:05:56;;;;;;;6.55;1.92;;;13.50;1.00;;;;;;5058052;28;20115;-54
2022/08/28 03:10:51;;;;;;;8.88;2.97;;;;;;;;;;5035412;28;20149;-58
2022/08/28 03:13:17;;;;;;;6.82;2.20;;;;;;;;;;5038869;28;20037;-57
2022/08/28 03:15:44;;;;;;;7.43;2.25;;;;;;;;;;5027365;28;20099;-57
2022/08/28 03:18:11;;;;;;;8.98;2.70;;;14.20;1.00;;;;;;5034733;28;20096;-58
2022/08/28 03:20:36;;;;;;;8.02;2.05;;;13.80;1.00;;;;;;5033867;28;20029;-58
2022/08/28 03:25:47;;;;;;;8.15;2.22;;;;;;;;;;5032123;28;20037;-57
2022/08/28 03:28:13;;;;;;;10.38;2.22;;;13.80;1.00;;;;;;5032429;28;20099;-58
2022/08/28 03:30:39;;;;;;;10.07;2.20;;;;;;;;;;5030262;28;20438;-58
2022/08/28 03:33:05;;;;;;;13.68;2.42;;;;;;;;;;5032550;28;20037;-58
2022/08/28 03:35:31;;;;;;;12.48;2.42;;;;;;;;;;5028468;28;20034;-58
2022/08/28 03:37:57;;;;;;;6.82;2.50;;;;;;;;;;5031239;28;20403;-58
2022/08/28 03:40:23;;;;;;;6.53;2.20;;;;;;;;;;5032282;28;20030;-58
2022/08/28 03:42:49;;;;;;;7.47;2.42;;;13.80;1.00;;;;;;5032393;28;20044;-58
2022/08/28 03:45:15;;;;;;;9.27;2.58;;;13.80;1.00;;;;;;5027221;28;20112;-58
2022/08/28 03:47:41;;;;;;;9.00;2.42;;;13.80;1.00;;;;;;5028646;28;20037;-58
2022/08/28 03:50:10;;;;;;;7.10;2.25;;;;;;;;;;5032463;28;20044;-58
2022/08/28 03:52:36;;;;;;;7.40;2.10;;;;;;;;;;5032056;28;20053;-58
2022/08/28 03:55:02;;;;;;;12.05;2.30;;;13.90;1.00;;;;;;5031779;28;20029;-58
2022/08/28 03:57:29;;;;;;;7.85;2.13;;;;;;;;;;5031437;28;20120;-57
2022/08/28 03:59:55;;;;;;;6.80;2.10;;;;;;;;;;5032209;28;20040;-57
2022/08/28 04:02:21;;;;;;;8.68;2.60;;;;;;;;;;5032335;28;20121;-58
2022/08/28 04:04:47;;;;;;;9.00;2.88;;;;;;;;;;5031210;28;20517;-58
2022/08/28 04:07:13;;;;;;;8.57;2.20;;;;;;;;;;4997427;28;20455;-57
2022/08/28 04:09:40;;;;;;;8.38;2.40;;;;;;;;;;5035194;28;20072;-55
2022/08/28 04:12:07;;;;;;;12.90;2.88;;;13.90;1.00;;;;;;5029873;28;20034;-58
2022/08/28 04:14:33;;;;;;;8.93;2.42;;;13.90;1.00;;;;;;5030806;28;20399;-58
2022/08/28 04:16:59;;;;;;;9.32;2.75;;;13.80;1.00;;;;;;5029328;28;20065;-58
2022/08/28 04:19:24;;;;;;;6.05;2.42;;;13.80;1.00;;;;;;5031287;28;20514;-58
2022/08/28 04:21:50;;;;;;;9.50;2.88;;;;;;;;;;5027164;28;20527;-58
2022/08/28 04:24:17;;;;;;;9.23;2.60;;;;;;;;;;5031196;28;20044;-56
2022/08/28 04:26:43;;;;;;;5.95;2.20;;;;;;;;;;5024417;28;20592;-58
2022/08/28 04:29:09;;;;;;;8.15;2.38;;;;;;;;;;5030997;28;20037;-57
2022/08/28 04:31:35;;;;;;;6.85;2.78;;;;;;;;;;5031572;28;20045;-56
2022/08/28 04:34:03;;;;;;;7.97;2.83;;;;;;;;;;5011591;28;20143;-57
2022/08/28 04:36:30;;;;;;;9.70;2.88;;;;;;;;;;5028440;28;20495;-57
2022/08/28 04:38:58;;;;;;;6.60;2.42;;;14.60;1.00;;;;;;5027573;28;20033;-56
2022/08/28 04:41:25;;;;;;;7.82;2.10;;;14.60;1.00;;;;;;5012136;28;20137;-58
2022/08/28 04:43:51;;;;;;;8.07;2.50;;;14.60;1.00;;;;;;5030391;28;20030;-57
2022/08/28 04:46:17;;;;;;;8.93;2.25;;;14.90;1.00;;;;;;5013502;28;20491;-58
2022/08/28 04:48:43;;;;;;;10.02;2.03;;;14.80;1.00;;;;;;5025155;28;20048;-58
2022/08/28 04:51:10;;;;;;;8.60;2.22;;;;;;;;;;5030537;28;20546;-58
2022/08/28 04:53:37;;;;;;;7.80;2.00;;;14.80;1.00;;;;;;5030671;28;20348;-58
2022/08/28 04:56:07;;;;;;;7.00;2.15;;;;;;;;;;5011625;28;20045;-57
2022/08/28 04:58:33;;;;;;;8.15;2.97;;;;;;;;;;5029829;28;20038;-57
2022/08/28 05:01:05;;;;;;;5.40;1.95;;;15.10;1.00;;;;;;5026561;28;20112;-56
2022/08/28 05:03:31;;;;;;;7.68;2.17;;;;;;;;;;5031015;28;20037;-55
2022/08/28 05:05:57;;;;;;;6.95;2.30;;;;;;;;;;5030154;28;20438;-56
2022/08/28 05:08:26;;;;;;;7.90;2.25;;;15.50;1.00;;;;;;5032702;28;20159;-57
2022/08/28 05:10:53;;;;;;;9.45;2.13;;;15.50;1.00;;;;;;5020108;28;20087;-58
2022/08/28 05:13:20;;;;;;;7.07;2.13;;;;;;;;;;5030473;28;20048;-58
2022/08/28 05:15:47;;;;;;;6.68;2.40;;;;;;;;;;5030776;28;20120;-56
2022/08/28 05:18:14;;;;;;;9.98;2.00;;;;;;;;;;5030104;28;20037;-57
2022/08/28 05:20:43;;;;;;;9.82;1.73;;;15.40;1.00;;;;;;5011277;28;20665;-57
2022/08/28 05:23:09;;;;;;;7.80;2.30;;;;;;;;;;5030592;28;20029;-57
2022/08/28 05:25:36;;;;;;;8.65;2.13;;;;;;;;;;5030490;28;20045;-57
2022/08/28 05:28:02;;;;;;;9.82;1.98;;;;;;;;;;5012246;28;20120;-58
2022/08/28 05:30:28;;;;;;;7.28;2.00;;;;;;;;;;5024856;28;20436;-57
2022/08/28 05:32:54;;;;;;;7.55;3.30;;;;;;;;;;5030225;28;20037;-58
2022/08/28 05:35:20;;;;;;;8.55;2.50;;;;;;;;;;5030337;28;20071;-58
2022/08/28 05:37:46;;;;;;;8.95;1.80;;;15.50;1.00;;;;;;5027599;28;20068;-58
2022/08/28 05:40:12;;;;;;;9.23;2.40;;;;;;;;;;5023257;28;20543;-57
2022/08/28 05:42:38;;;;;;;9.00;2.20;;;;;;;;;;5030089;28;20053;-56
2022/08/28 05:45:05;;;;;;;6.97;2.45;;;;;;;;;;5030404;28;20047;-57
2022/08/28 05:47:31;;;;;;;5.40;1.58;;;;;;;;;;5029489;28;20462;-58
2022/08/28 05:49:58;;;;;;;6.05;1.90;;;;;;;;;;5027138;28;20045;-58
2022/08/28 05:52:24;;;;;;;6.20;1.70;;;;;;;;;;5030145;28;20108;-58
2022/08/28 05:54:50;;;;;;;7.22;1.90;;;;;;;;;;5029283;28;20045;-58
2022/08/28 05:57:16;;;;;;;7.65;1.92;;;;;;;;;;5029067;28;20045;-58
2022/08/28 05:59:42;;;;;;;7.28;2.20;;;15.60;1.00;;;;;;5029957;28;20037;-58
2022/08/28 06:02:08;;;;;;;5.00;1.88;;;15.70;1.00;;;;;;5030000;28;20407;-58
2022/08/28 06:04:36;;;;;;;6.68;2.35;;;;;;;;;;5011519;28;20128;-57
2022/08/28 06:07:03;;;;;;;6.88;1.90;;;;;;;;;;5030635;28;20045;-56
2022/08/28 06:09:29;;;;;;;5.57;1.70;;;;;;;;;;5024931;28;20063;-58
2022/08/28 06:11:57;;;;;;;10.70;2.47;;;;;;;;;;5021952;28;20547;-57
2022/08/28 06:14:23;;;;;;;8.85;1.80;;;;;;;;;;5022911;28;20042;-57
2022/08/28 06:16:51;;;;;;;6.35;1.80;;;;;;;;;;5029791;28;20048;-57
2022/08/28 06:19:19;;;;;;;9.18;2.40;;;16.00;1.00;;;;;;5026754;28;20461;-57
2022/08/28 06:21:46;;;;;;;9.35;1.80;;;;;;;;;;5031650;28;20029;-58
2022/08/28 06:24:13;;;;;;;5.80;1.60;;;;;;;;;;5033862;28;20509;-57
2022/08/28 06:26:40;;;;;;;7.72;1.65;;;;;;;;;;5033435;28;20068;-55
2022/08/28 06:29:12;;;;;;;8.77;2.03;;;15.70;1.00;;;;;;5032914;28;20044;-58
2022/08/28 06:31:38;;;;;;;6.10;2.13;;;16.50;1.00;;;;;;5033866;28;20098;-57
2022/08/28 06:34:05;;;;;;;10.13;2.10;;;16.40;1.00;;;;;;5011517;28;20038;-57
2022/08/28 06:36:32;;;;;;;9.32;1.83;;;;;;;;;;5033787;28;20038;-58
2022/08/28 06:38:59;;;;;;;8.90;2.15;;;16.50;1.00;;;;;;5032566;28;20109;-57
2022/08/28 06:41:26;;;;;;;5.88;1.70;;;16.50;1.00;;;;;;5033757;28;20033;-57
2022/08/28 06:43:52;;;;;;;4.90;1.70;;;;;;;;;;5032739;28;20168;-58
2022/08/28 06:46:18;;;;;;;7.35;2.10;;;16.70;1.00;;;;;;5036178;28;20482;-59
2022/08/28 06:48:43;;;;;;;8.30;1.90;;;16.70;1.00;;;;;;5040628;28;20037;-58
2022/08/28 06:51:10;;;;;;;6.05;1.90;;;;;;;;;;5030543;28;20034;-58
2022/08/28 06:53:37;;;;;;;7.70;1.60;;;;;;;;;;5033616;28;20103;-58
2022/08/28 06:56:06;;;;;;;6.43;1.98;;;17.60;1.00;;;;;;5033389;28;20093;-58
2022/08/28 06:58:33;;;;;;;9.55;2.60;;;;;;;;;;5032229;28;20045;-58
2022/08/28 07:01:16;;;;;;;6.88;1.90;;;17.30;99.90;;;;;;5033382;28;20103;-58
2022/08/28 07:03:42;;;;;;;6.45;1.85;;;18.00;99.90;;;;;;5031648;28;20489;-58
2022/08/28 07:06:09;;;;;;;7.20;2.00;;;;;;;;;;5029910;28;20056;-58
2022/08/28 07:08:35;;;;;;;8.57;2.22;;;;;;;;;;5018811;28;20045;-58
2022/08/28 07:11:14;;;;;;;8.43;2.70;;;17.80;99.90;;;;;;5017032;28;20049;-58
2022/08/28 07:13:41;;;;;;;6.03;1.63;;;;;;;;;;5017418;28;20045;-58
2022/08/28 07:16:07;;;;;;;6.88;1.83;;;17.50;99.90;;;;;;5014151;28;20041;-57
2022/08/28 07:18:34;;;;;;;4.93;1.90;;;;;;;;;;5028474;28;20447;-58
2022/08/28 07:20:59;;;;;;;6.65;2.10;;;17.50;99.90;;;;;;5039465;28;20119;-58
2022/08/28 07:23:27;;;;;;;7.28;1.88;;;17.50;99.90;;;;;;5037679;28;20241;-58
2022/08/28 07:25:53;;;;;;;5.85;1.80;;;;;;;;;;5034289;28;20437;-58
2022/08/28 07:28:19;;;;;;;6.47;1.95;;;;;;;;;;5029796;28;20112;-57
2022/08/28 07:30:54;;;;;;;5.00;1.77;;;;;;;;;;5010711;28;20172;-57
2022/08/28 07:33:20;;;;;;;5.97;1.85;;;17.70;99.90;;;;;;5031870;28;20036;-56
2022/08/28 07:35:45;;;;;;;6.43;2.25;;;17.90;99.90;;;;;;5032314;28;20037;-57
2022/08/28 07:38:11;;;;;;;6.63;1.83;;;18.10;99.90;;;;;;5031408;28;20483;-57
2022/08/28 07:40:37;;;;;;;6.22;1.67;;;18.40;99.90;;;;;;5032462;28;20033;-57
2022/08/28 07:45:55;;;;;;;7.57;1.88;;;18.70;99.90;;;;;;5026851;28;20041;-58
2022/08/28 07:48:20;;;;;;;7.38;2.72;;;18.70;99.90;;;;;;5013162;28;20045;-57
2022/08/28 07:50:46;;;;;;;8.93;2.05;;;;;;;;;;5014309;28;20037;-58
2022/08/28 07:53:22;;;;;;;8.50;2.20;;;;;;;;;;5007528;28;20034;-57
2022/08/28 07:55:49;;;;;;;8.40;1.98;;;18.50;99.90;;;;;;5004532;28;20064;-57
2022/08/28 07:58:16;;;;;;;8.25;2.22;;;;;;;;;;4999634;28;20064;-58
2022/08/28 08:00:41;;;;;;;7.95;2.53;;;18.70;99.90;;;;;;5019558;28;20037;-57
2022/08/28 08:03:07;;;;;;;6.95;1.92;;;19.20;99.90;;;;;;5022470;28;20388;-57
2022/08/28 08:05:33;;;;;;;6.60;1.70;;;18.90;99.90;;;;;;5020162;28;20038;-57
2022/08/28 08:07:59;;;;;;;8.70;1.88;;;;;;;;;;5023529;28;20033;-57
2022/08/28 08:10:24;;;;;;;5.97;2.20;;;18.70;99.90;;;;;;5032111;28;20110;-60
2022/08/28 08:12:53;;;;;;;6.85;2.10;;;18.20;99.90;;;;;;5033275;28;20033;-57
2022/08/28 08:15:19;;;;;;;8.30;1.70;;;;;;;;;;5031901;28;20037;-55
2022/08/28 08:17:44;;;;;;;7.93;1.85;;;19.20;99.90;;;;;;5031481;28;20047;-58
2022/08/28 08:20:10;;;;;;;5.50;1.88;;;;;;;;;;5032688;28;20112;-58
2022/08/28 08:22:39;;;;;;;4.82;1.45;;;18.70;99.90;;;;;;5031921;28;20037;-58
2022/08/28 08:25:07;;;;;;;5.55;1.98;;;;;;;;;;5015224;28;20137;-57
2022/08/28 08:27:34;;;;;;;6.95;1.60;;;19.40;99.90;;;;;;5030243;28;20403;-58
2022/08/28 08:30:01;;;;;;;6.30;1.60;;;;;;;;;;5031507;28;20406;-57
2022/08/28 08:32:26;;;;;;;6.28;1.88;;;18.60;99.90;;;;;;5027664;28;20175;-57
2022/08/28 08:35:00;;;;;;;10.98;2.10;;;19.70;99.90;;;;;;5031114;28;20132;-55
2022/08/28 08:37:26;;;;;;;6.30;1.70;;;;;;;;;;5031180;28;20103;-58
2022/08/28 08:39:53;;;;;;;9.38;2.10;;;19.10;99.90;;;;;;5029257;28;20033;-58
2022/08/28 08:42:27;;;;;;;7.45;2.55;;;;;;;;;;5031117;28;20041;-57
2022/08/28 08:44:55;;;;;;;5.50;1.77;;;19.50;99.90;;;;;;5026313;28;20377;-58
2022/08/28 08:47:34;;;;;;;6.97;1.90;;;;;;;;;;5026910;28;20038;-57
2022/08/28 08:50:29;;;;;;;6.70;2.00;;;;;;;;;;5027786;28;20491;-58
2022/08/28 08:53:13;;;;;;;;;;;19.60;99.90;;;;;;4999741;28;20041;-58
2022/08/28 08:55:46;;;;;;;8.63;2.20;;;;;;;;;;5017168;28;20008;-58
2022/08/28 08:58:32;;;;;;;7.93;2.00;;;19.40;99.90;;;;;;5029183;28;20128;-57
2022/08/28 09:01:00;;;;;;;7.15;2.08;;;;;;;;;;5034933;28;20627;-58
2022/08/28 09:03:42;;;;;;;5.05;1.70;;;20.00;99.90;;;;;;5036889;28;20026;-57
2022/08/28 09:06:25;;;;;;;8.50;1.98;;;19.10;99.90;;;;;;5028978;28;20029;-57
2022/08/28 09:08:57;;;;;;;6.75;1.73;;;19.70;99.90;;;;;;5032270;28;20030;-57
2022/08/28 09:11:42;;;;;;;6.57;1.92;;;19.20;99.90;;;;;;5099965;22;20174;-53
2022/08/28 09:14:15;;;;;;;;;;;19.70;99.90;;;;;;5043717;28;20103;-56
2022/08/28 09:16:43;;;;;;;5.32;1.60;;;19.70;99.90;;;;;;5044092;28;19917;-56
2022/08/28 09:19:17;;;;;;;8.18;1.88;;;19.50;99.90;;;;;;5041809;28;20544;-56
2022/08/28 09:21:43;;;;;;;;;;;19.40;99.90;;;;;;5041737;28;20402;-55
2022/08/28 09:24:19;;;;;;;7.60;2.33;;;19.30;99.90;;;;;;5040460;28;20408;-55
2022/08/28 09:27:00;;;;;;;6.40;2.33;;;19.50;99.90;;;;;;5041503;28;20041;-51
2022/08/28 09:29:38;;;;;;;6.47;1.65;;;19.30;99.90;;;;;;5044746;28;20044;-54
2022/08/28 09:32:30;;;;;;;6.10;2.20;;;19.50;99.90;;;;;;5018084;28;20545;-55
2022/08/28 09:35:11;;;;;;;6.28;2.05;;;19.40;99.90;;;;;;5039224;28;20041;-56
2022/08/28 09:37:38;;;;;;;8.60;2.20;;;20.30;99.90;;;;;;5043627;28;20045;-56
2022/08/28 09:43:25;;;;;;;6.07;1.90;;;19.10;99.90;;;;;;5030864;28;20090;-56
2022/08/28 09:43:32;;;;;;;5.40;2.20;;;19.90;99.90;;;;;;5032500;28;20041;-56
2022/08/28 09:46:25;;;;;;;5.75;1.73;;;19.70;99.90;;;;;;5038664;28;20498;-54
2022/08/28 09:48:51;;;;;;;7.75;2.45;;;19.80;99.90;;;;;;5042444;28;20029;-55
2022/08/28 09:51:19;;;;;;;7.50;2.00;;;19.80;99.90;;;;;;5027863;28;20037;-55
2022/08/28 09:53:51;;;;;;;4.57;1.30;;;20.80;99.90;;;;;;5042742;28;20072;-56
2022/08/28 09:56:25;;;;;;;6.57;1.85;;;20.20;99.90;;;;;;5037194;28;20041;-55
2022/08/28 09:58:58;;;;;;;7.95;2.17;;;20.20;99.90;;;;;;5045680;28;20356;-55
2022/08/28 10:01:47;;;;;;;7.55;2.22;;;19.90;99.90;;;;;;5047071;28;20356;-55
2022/08/28 10:04:14;;;;;;;5.25;1.80;;;20.20;99.90;;;;;;5040976;28;20037;-51
2022/08/28 10:06:41;;;;;;;8.45;1.95;;;20.10;99.90;;;;;;5048454;28;20580;-56
2022/08/28 10:09:23;;;;;;;7.22;1.90;;;21.30;99.90;;;;;;5047840;28;20473;-56
2022/08/28 10:12:16;;;;;;;5.30;2.00;;;21.60;99.90;;;;;;5045974;28;20071;-54
2022/08/28 10:14:44;;;;;;;5.38;1.75;;;21.60;99.90;;;;;;5048379;28;20453;-54
2022/08/28 10:17:30;;;;;;;5.15;1.88;;;20.50;99.90;;;;;;5045988;28;20029;-56
2022/08/28 10:20:26;;;;;;;5.03;1.80;;;21.50;99.90;;;;;;5045591;28;20041;-55
2022/08/28 10:23:17;;;;;;;6.82;1.80;;;21.10;99.90;;;;;;5027481;28;20044;-55
2022/08/28 10:26:07;;;;;;;7.53;1.90;;;21.90;99.90;;;;;;5041830;28;20072;-55
2022/08/28 10:28:59;;;;;;;6.88;2.10;;;21.50;99.90;;;;;;5043612;28;20487;-55
2022/08/28 10:31:43;;;;;;;8.90;1.85;;;21.90;99.90;;;;;;5048022;28;20045;-55
2022/08/28 10:34:33;;;;;;;9.00;2.22;;;21.30;99.90;;;;;;5048275;28;20132;-55
2022/08/28 10:37:23;;;;;;;6.95;2.10;;;21.00;99.90;;;;;;5046730;28;20509;-54
2022/08/28 10:39:56;;;;;;;5.97;1.60;;;21.00;99.90;;;;;;5047202;28;20088;-55
2022/08/28 10:42:33;;;;;;;5.45;1.50;;;20.80;99.90;;;;;;5048173;28;20029;-53
2022/08/28 10:45:09;;;;;;;6.15;1.80;;;21.00;99.90;;;;;;5048110;28;20051;-55
2022/08/28 10:47:47;;;;;;;7.38;1.95;;;21.80;99.90;;;;;;5045680;28;20041;-51
2022/08/28 10:50:28;;;;;;;6.15;1.92;;;20.90;99.90;;;;;;5015548;28;20037;-53
2022/08/28 10:53:04;;;;;;;7.13;1.45;;;22.50;99.90;;;;;;5038474;28;20376;-56
2022/08/28 10:55:37;;;;;;;5.53;1.60;;;20.80;99.90;;;;;;5041435;28;20051;-55
2022/08/28 10:58:10;;;;;;;6.75;2.10;;;20.80;99.90;;;;;;5038137;28;20037;-55
2022/08/28 11:00:43;;;;;;;5.15;1.90;;;21.80;99.90;;;;;;5036059;28;20053;-55
2022/08/28 11:03:13;;;;;;;5.63;1.65;;;21.20;99.90;;;;;;5043768;28;20398;-51
2022/08/28 11:05:53;;;;;;;6.60;2.45;;;20.70;99.90;;;;;;5025064;28;20087;-52
2022/08/28 11:08:28;;;;;;;4.90;1.63;;;21.40;99.90;;;;;;5029986;28;20055;-54
2022/08/28 11:11:02;;;;;;;5.47;1.73;;;22.00;99.90;;;;;;5047794;28;20040;-55
2022/08/28 11:13:50;;;;;;;9.10;2.03;;;21.80;99.90;;;;;;5045366;28;20040;-56
2022/08/28 11:16:23;;;;;;;5.97;1.98;;;21.20;99.90;;;;;;5036485;28;20487;-55
2022/08/28 11:19:07;;;;;;;5.72;1.70;;;21.80;99.90;;;;;;5045857;28;20282;-56
2022/08/28 11:22:26;;;;;;;6.72;1.60;;;21.80;99.90;;;;;;5039112;28;20043;-51
2022/08/28 11:24:55;;;;;;;6.45;1.83;;;21.70;99.90;;;;;;5040240;28;20085;-55
2022/08/28 11:27:38;;;;;;;6.43;1.98;;;20.90;99.90;;;;;;5011963;28;20156;-54
2022/08/28 11:30:09;;;;;;;6.68;2.00;;;21.80;99.90;;;;;;5045366;28;20146;-56
2022/08/28 11:32:38;;;;;;;6.75;1.75;;;21.30;99.90;;;;;;5040229;28;20091;-56
2022/08/28 11:35:29;;;;;;;5.85;1.65;;;22.40;99.90;;;;;;5046992;28;20457;-55
2022/08/28 11:37:57;;;;;;;6.10;1.70;;;22.10;99.90;;;;;;5046394;28;20462;-54
2022/08/28 11:40:31;;;;;;;7.05;1.90;;;22.30;99.90;;;;;;5044613;28;20040;-56
2022/08/28 11:43:15;;;;;;;5.95;1.70;;;22.00;99.90;;;;;;5037305;28;20487;-51
2022/08/28 11:45:46;;;;;;;6.20;1.70;;;22.30;99.90;;;;;;5045086;28;20037;-55
2022/08/28 11:48:27;;;;;;;4.65;1.65;;;22.80;99.90;;;;;;5048471;28;20076;-56
2022/08/28 11:50:52;;;;;;;5.63;1.70;;;22.40;99.90;;;;;;5040002;28;20071;-56
2022/08/28 11:53:37;;;;;;;6.70;1.60;;;22.60;99.90;;;;;;5031545;28;20040;-55
2022/08/28 11:56:11;;;;;;;5.47;1.48;;;22.80;99.90;;;;;;5052649;28;20041;-55
2022/08/28 11:59:05;;;;;;;4.57;1.70;;;22.50;99.90;;;;;;5036875;28;20048;-55
2022/08/28 12:01:36;;;;;;;4.78;1.33;;;23.00;99.90;;;;;;5038596;28;20087;-55
2022/08/28 12:04:07;;;;;;;6.95;1.85;;;23.20;99.90;;;;;;5047678;28;20491;-55
2022/08/28 12:06:45;;;;;;;5.18;1.83;;;23.10;99.90;;;;;;5029732;28;20040;-55
2022/08/28 12:09:42;;;;;;;6.38;1.55;;;23.50;99.90;;;;;;5042484;28;20052;-56
2022/08/28 12:12:20;;;;;;;5.78;1.83;;;23.60;99.90;;;;;;5046056;28;20072;-55
2022/08/28 12:14:45;;;;;;;6.35;1.40;;;23.90;99.90;;;;;;5049699;28;20041;-56
2022/08/28 12:17:19;;;;;;;5.80;1.75;;;23.80;99.90;;;;;;5049804;28;20078;-54
2022/08/28 12:20:09;;;;;;;8.13;2.33;;;23.70;99.90;;;;;;5041584;28;20052;-56
2022/08/28 12:23:21;;;;;;;5.20;1.70;;;24.50;99.90;;;;;;5046014;28;20037;-56
2022/08/28 12:26:09;;;;;;;6.22;1.80;;;24.30;99.90;;;;;;4967102;28;20045;-53
2022/08/28 12:28:56;;;;;;;5.40;1.77;;;25.40;99.90;;;;;;5044291;28;20095;-56
2022/08/28 12:34:32;;;;;;;8.45;1.80;;;25.10;99.90;;;;;;5048958;28;20045;-56
2022/08/28 12:37:03;;;;;;;5.57;1.80;;;25.70;99.90;;;;;;5041137;28;20104;-56
2022/08/28 12:39:34;;;;;;;4.95;1.70;;;26.20;99.90;;;;;;5045925;28;20043;-54
2022/08/28 12:42:02;;;;;;;7.97;2.22;;;26.30;99.90;;;;;;5047248;28;20037;-55
2022/08/28 12:44:34;;;;;;;4.30;1.42;;;26.70;99.90;;;;;;5041560;28;20407;-54
2022/08/28 12:47:04;;;;;;;4.95;1.55;;;27.70;99.90;;;;;;5035862;28;20499;-56
2022/08/28 12:49:35;;;;;;;7.38;2.00;;;27.20;99.90;;;;;;5039538;28;20308;-56
2022/08/28 12:52:19;;;;;;;8.00;1.70;;;27.10;99.90;;;;;;5035104;28;20049;-55
2022/08/28 12:54:50;;;;;;;5.70;1.70;;;25.90;99.90;;;;;;5029769;28;20052;-55
2022/08/28 12:57:21;;;;;;;6.63;1.83;;;26.00;99.90;;;;;;5025023;28;20120;-55
2022/08/28 12:59:50;;;;;;;5.57;1.50;;;25.00;99.90;;;;;;5038843;28;20041;-55
2022/08/28 13:02:28;;;;;;;6.20;1.77;;;25.50;99.90;;;;;;5039224;28;20159;-55
2022/08/28 13:05:00;;;;;;;4.90;1.55;;;25.30;99.90;;;;;;5039513;28;20106;-54
2022/08/28 13:07:36;;;;;;;5.80;1.65;;;25.70;99.90;;;;;;5036283;28;20108;-53
2022/08/28 13:10:32;;;;;;;7.07;1.65;;;25.70;99.90;;;;;;5040021;28;20040;-53
2022/08/28 13:13:05;;;;;;;5.97;1.60;;;25.10;99.90;;;;;;5027356;28;20419;-52
2022/08/28 13:15:48;;;;;;;6.95;2.15;;;27.50;99.90;;;;;;5039811;28;20041;-53
2022/08/28 13:18:45;;;;;;;6.35;1.90;;;29.50;99.90;;;;;;5040647;28;20041;-53
2022/08/28 13:21:16;;;;;;;6.28;1.65;;;32.00;99.90;;;;;;5039670;28;20430;-55
2022/08/28 13:23:56;;;;;;;5.97;1.80;;;32.90;99.90;;;;;;5028826;28;20122;-54
2022/08/28 13:26:32;;;;;;;7.88;2.30;;;32.60;99.90;;;;;;5043382;28;20037;-55
2022/08/28 13:29:02;;;;;;;6.25;1.75;;;31.00;99.90;;;;;;5028650;28;20080;-55
2022/08/28 13:31:41;;;;;;;5.55;1.52;;;29.80;99.90;;;;;;5037506;28;20037;-55
2022/08/28 13:34:25;;;;;;;5.68;2.17;;;28.40;99.90;;;;;;5044665;28;20044;-52
2022/08/28 13:36:56;;;;;;;6.18;1.73;;;29.00;99.90;;;;;;5034890;28;20150;-55
2022/08/28 13:39:32;;;;;;;5.78;1.80;;;27.80;99.90;;;;;;5021701;28;20037;-55
2022/08/28 13:42:11;;;;;;;5.53;1.52;;;27.50;99.90;;;;;;5034058;28;20030;-55
2022/08/28 13:44:55;;;;;;;6.03;1.88;;;26.70;99.90;;;;;;5037478;28;20510;-56
2022/08/28 13:47:24;;;;;;;;;;;25.90;99.90;;;;;;5050933;28;20032;-56
2022/08/28 13:49:52;;;;;;;5.47;1.63;;;25.20;99.90;;;;;;5039138;28;19916;-55
2022/08/28 13:52:21;;;;;;;6.18;1.98;;;25.70;99.90;;;;;;5043901;28;20447;-51
2022/08/28 13:54:49;;;;;;;5.57;1.50;;;24.70;99.90;;;;;;5035796;28;20044;-55